Uelen, Russia
Current Conditions -  °F | °C
As of 1:58 PM on Tuesday 25 Nov 2014 (Local Time) from PAIW Reporting Station
Light Snow Light Snow  
Wind Chill: 12°   Ceiling: 4700
Heat Index: 23°   Visibility: 9mi
Dew Point: 20°   Wind: 12mph
Humidity: 88%   Direction: 190°S
Pressure: 29.87"   Gusts: NA
Location:  66.16°N, 169.82°W
Report Text: PAIW 250158Z AUTO 19010KT 9SM -SN OVC047 M05/M07 A2987 RMK AO2 UPB05E19SNE05B19 SLP117 P0000 T10501067 FZRANO
Loading
Personal Weather Stations






























Interactive Weather Map New forecast layout! Learn more

10-Day Weather Forecast

Advertisements
Track Severe Weather on mobile